Archival Weather

Luke Afb

Glendale, Arizona (KLUF)

Report from: Friday, April 19, 2024 3:55 PM MST
Current time: Monday, June 24, 2024 4:33 AM MST

Current weather – Weather history – Daily summaries
Weather forecast

Temperature33.0°C (91.4°F)
Heat index30.6°C (87.1°F)
Dew point-7.4°C (18.7°F)
Winds 9 kts (4.6 m/s, 10.4 mph) Southwest (220°)
Visibility10 mi. (16.1 km)
Clouds Sky clear
Altimeter29.74 in.Hg (1007 mB)
Relative humidity7 %
Density altitude2,361 ft. (720 m)
Sea-level pressure100.6 kPa (1006 mB, 29.70 in.Hg)
Remarks Fully automated report
System requires maintenance
Automated weather observing station with precipitation discriminator
Flight conditions Visual Meteorological Conditions
Raw dataKLUF 192255Z AUTO 22009KT 10SM CLR 33/M07 A2974 RMK AO2 SLP059 T03301074 $
An error has occurred. This application may no longer respond until reloaded. Reload 🗙